Overview Statistics Trail Chart Weather Telemetry Raw packets
 

This is the latest recevied weather packets stored in our database for station/object DL4MGC-10. If no packets are shown the sender has not sent any weather packets the latest 10 day(s).

<< 16 17 18 19 20 21 22 >>
Time Temp. Humidity Pressure Rain* Wind** Luminosity Snow
1788310633 16.67° C 87% 1021.7 hPa - - - -
1788309723 15.56° C 92% 1021.7 hPa - - - -
1788308823 16.67° C 87% 1021.7 hPa - - - -
1788307923 16.67° C 86% 1021.8 hPa - - - -
1788307023 16.11° C 92% 1021.7 hPa - - - -
1788306123 16.67° C 88% 1021.8 hPa - - - -
1788305223 16.67° C 89% 1021.8 hPa - - - -
1788304323 17.22° C 86% 1021.9 hPa - - - -
1788303423 17.22° C 85% 1022 hPa - - - -
1788302523 16.11° C 88% 1022 hPa - - - -
1788301622 17.22° C 83% 1021.9 hPa - - - -
1788300722 17.22° C 82% 1022.1 hPa - - - -
1788299822 17.22° C 84% 1022.1 hPa - - - -
1788298922 17.22° C 86% 1022 hPa - - - -
1788298022 17.78° C 85% 1021.9 hPa - - - -
1788297122 18.33° C 83% 1021.8 hPa - - - -
1788296222 18.33° C 83% 1021.8 hPa - - - -
1788295322 18.89° C 80% 1021.8 hPa - - - -
1788294422 19.44° C 77% 1021.8 hPa - - - -
1788293522 19.44° C 79% 1021.7 hPa - - - -
1788292622 19.44° C 77% 1021.7 hPa - - - -
1788291722 19.44° C 78% 1021.6 hPa - - - -
1788290822 19.44° C 75% 1021.5 hPa - - - -
1788289921 20° C 76% 1021.5 hPa - - - -
1788289021 20.56° C 75% 1021.2 hPa - - - -

* Rain since midnight (hover to see other rain measurements)
** Current wind speed in m/s (hover to see current wind gust speed)